Terminal Aerodrome Forecast
Issued by NWS Sterling, VA

Current Version | Previous Version | Graphics & Text | Print | Product List | Glossary On
Versions: 1 2 3 4 5 6 7 8 9 10 11 12 13 14 15 16 17 18 19 20 21 22 23 24 25 26 27
000
FTUS41 KLWX 050540
TAFIAD
TAF
KIAD 050540Z 0506/0612 00000KT 3SM BR BKN018
     FM050700 VRB03KT 1/2SM FG SCT015
     FM051300 VRB03KT 5SM BR BKN200
     FM051400 VRB03KT P6SM BKN200
     FM060700 VRB03KT 5SM BR BKN050
     FM061000 VRB03KT 5SM -SHRA OVC050=

USA.gov is the U.S. government's official web portal to all federal, state and local government web resources and services.